sensor_id;sensor_type;location;lat;lon;timestamp;pressure;altitude;pressure_sealevel;temperature
64458;BMP280;58438;51.200;7.252;2023-12-29T00:01:23;96912.13;;;8.25
64458;BMP280;58438;51.200;7.252;2023-12-29T00:04:10;96913.09;;;8.22
64458;BMP280;58438;51.200;7.252;2023-12-29T00:06:57;96909.41;;;8.25
64458;BMP280;58438;51.200;7.252;2023-12-29T00:09:47;96898.13;;;8.26
64458;BMP280;58438;51.200;7.252;2023-12-29T00:12:34;96899.03;;;8.23
64458;BMP280;58438;51.200;7.252;2023-12-29T00:15:22;96892.47;;;8.30
64458;BMP280;58438;51.200;7.252;2023-12-29T00:18:10;96901.34;;;8.30
64458;BMP280;58438;51.200;7.252;2023-12-29T00:20:57;96889.97;;;8.26
64458;BMP280;58438;51.200;7.252;2023-12-29T00:23:51;96888.25;;;8.29
64458;BMP280;58438;51.200;7.252;2023-12-29T00:26:38;96872.00;;;8.29
64458;BMP280;58438;51.200;7.252;2023-12-29T00:29:25;96875.41;;;8.24
64458;BMP280;58438;51.200;7.252;2023-12-29T00:32:15;96864.34;;;8.27
64458;BMP280;58438;51.200;7.252;2023-12-29T00:35:02;96867.59;;;8.31
64458;BMP280;58438;51.200;7.252;2023-12-29T00:37:50;96885.78;;;8.25
64458;BMP280;58438;51.200;7.252;2023-12-29T00:40:37;96881.59;;;8.24
64458;BMP280;58438;51.200;7.252;2023-12-29T00:43:24;96872.72;;;8.29
64458;BMP280;58438;51.200;7.252;2023-12-29T00:46:13;96871.94;;;8.23
64458;BMP280;58438;51.200;7.252;2023-12-29T00:49:02;96861.09;;;8.23
64458;BMP280;58438;51.200;7.252;2023-12-29T00:51:49;96861.41;;;8.31
64458;BMP280;58438;51.200;7.252;2023-12-29T00:54:36;96860.63;;;8.25
64458;BMP280;58438;51.200;7.252;2023-12-29T00:57:23;96858.19;;;8.27
64458;BMP280;58438;51.200;7.252;2023-12-29T01:00:11;96856.47;;;8.29
64458;BMP280;58438;51.200;7.252;2023-12-29T01:02:59;96848.84;;;8.28
64458;BMP280;58438;51.200;7.252;2023-12-29T01:05:50;96853.50;;;8.27
64458;BMP280;58438;51.200;7.252;2023-12-29T01:08:40;96848.09;;;8.27
64458;BMP280;58438;51.200;7.252;2023-12-29T01:11:30;96854.28;;;8.28
64458;BMP280;58438;51.200;7.252;2023-12-29T01:14:20;96853.28;;;8.31
64458;BMP280;58438;51.200;7.252;2023-12-29T01:17:10;96843.88;;;8.26
64458;BMP280;58438;51.200;7.252;2023-12-29T01:19:59;96843.88;;;8.26
64458;BMP280;58438;51.200;7.252;2023-12-29T01:22:52;96836.00;;;8.28
64458;BMP280;58438;51.200;7.252;2023-12-29T01:25:42;96832.81;;;8.30
64458;BMP280;58438;51.200;7.252;2023-12-29T01:28:32;96826.63;;;8.29
64458;BMP280;58438;51.200;7.252;2023-12-29T01:31:23;96831.41;;;8.34
64458;BMP280;58438;51.200;7.252;2023-12-29T01:34:12;96838.50;;;8.32
64458;BMP280;58438;51.200;7.252;2023-12-29T01:37:02;96824.22;;;8.31
64458;BMP280;58438;51.200;7.252;2023-12-29T01:39:54;96835.06;;;8.31
64458;BMP280;58438;51.200;7.252;2023-12-29T01:42:43;96845.69;;;8.35
64458;BMP280;58438;51.200;7.252;2023-12-29T01:45:33;96835.31;;;8.33
64458;BMP280;58438;51.200;7.252;2023-12-29T01:48:31;96844.94;;;8.34
64458;BMP280;58438;51.200;7.252;2023-12-29T01:51:21;96840.25;;;8.35
64458;BMP280;58438;51.200;7.252;2023-12-29T01:54:13;96835.31;;;8.33
64458;BMP280;58438;51.200;7.252;2023-12-29T01:57:04;96839.31;;;8.38
64458;BMP280;58438;51.200;7.252;2023-12-29T01:59:56;96839.53;;;8.34
64458;BMP280;58438;51.200;7.252;2023-12-29T02:02:46;96844.00;;;8.37
64458;BMP280;58438;51.200;7.252;2023-12-29T02:05:36;96835.84;;;8.37
64458;BMP280;58438;51.200;7.252;2023-12-29T02:08:25;96832.19;;;8.40
64458;BMP280;58438;51.200;7.252;2023-12-29T02:11:16;96826.22;;;8.36
64458;BMP280;58438;51.200;7.252;2023-12-29T02:14:07;96823.25;;;8.34
64458;BMP280;58438;51.200;7.252;2023-12-29T02:17:00;96809.44;;;8.32
64458;BMP280;58438;51.200;7.252;2023-12-29T02:19:51;96818.09;;;8.36
64458;BMP280;58438;51.200;7.252;2023-12-29T02:22:38;96808.47;;;8.35
64458;BMP280;58438;51.200;7.252;2023-12-29T02:25:27;96812.41;;;8.34
64458;BMP280;58438;51.200;7.252;2023-12-29T02:28:15;96813.63;;;8.33
64458;BMP280;58438;51.200;7.252;2023-12-29T02:31:05;96797.88;;;8.37
64458;BMP280;58438;51.200;7.252;2023-12-29T02:33:54;96777.16;;;8.34
64458;BMP280;58438;51.200;7.252;2023-12-29T02:36:42;96761.16;;;8.36
64458;BMP280;58438;51.200;7.252;2023-12-29T02:39:30;96741.66;;;8.32
64458;BMP280;58438;51.200;7.252;2023-12-29T02:42:20;96719.41;;;8.28
64458;BMP280;58438;51.200;7.252;2023-12-29T02:45:07;96706.13;;;8.30
64458;BMP280;58438;51.200;7.252;2023-12-29T02:47:56;96707.97;;;8.19
64458;BMP280;58438;51.200;7.252;2023-12-29T02:50:44;96684.78;;;8.12
64458;BMP280;58438;51.200;7.252;2023-12-29T02:53:31;96683.09;;;8.15
64458;BMP280;58438;51.200;7.252;2023-12-29T02:56:18;96662.56;;;8.08
64458;BMP280;58438;51.200;7.252;2023-12-29T02:59:07;96676.63;;;8.07
64458;BMP280;58438;51.200;7.252;2023-12-29T03:01:54;96662.69;;;7.94
64458;BMP280;58438;51.200;7.252;2023-12-29T03:04:41;96669.88;;;7.97
64458;BMP280;58438;51.200;7.252;2023-12-29T03:07:28;96658.34;;;8.02
64458;BMP280;58438;51.200;7.252;2023-12-29T03:10:15;96664.94;;;7.95
64458;BMP280;58438;51.200;7.252;2023-12-29T03:13:02;96634.16;;;7.98
64458;BMP280;58438;51.200;7.252;2023-12-29T03:15:51;96640.13;;;8.02
64458;BMP280;58438;51.200;7.252;2023-12-29T03:18:38;96645.47;;;7.97
64458;BMP280;58438;51.200;7.252;2023-12-29T03:21:25;96646.75;;;8.01
64458;BMP280;58438;51.200;7.252;2023-12-29T03:24:12;96640.38;;;8.04
64458;BMP280;58438;51.200;7.252;2023-12-29T03:27:00;96646.44;;;7.94
64458;BMP280;58438;51.200;7.252;2023-12-29T03:29:47;96639.81;;;8.00
64458;BMP280;58438;51.200;7.252;2023-12-29T03:32:35;96642.06;;;8.02
64458;BMP280;58438;51.200;7.252;2023-12-29T03:35:23;96637.63;;;7.99
64458;BMP280;58438;51.200;7.252;2023-12-29T03:38:10;96626.03;;;7.98
64458;BMP280;58438;51.200;7.252;2023-12-29T03:40:57;96648.03;;;8.06
64458;BMP280;58438;51.200;7.252;2023-12-29T03:43:44;96640.16;;;8.08
64458;BMP280;58438;51.200;7.252;2023-12-29T03:46:31;96643.59;;;8.08
64458;BMP280;58438;51.200;7.252;2023-12-29T03:49:20;96658.44;;;8.13
64458;BMP280;58438;51.200;7.252;2023-12-29T03:52:07;96645.88;;;8.15
64458;BMP280;58438;51.200;7.252;2023-12-29T03:54:54;96652.06;;;8.21
64458;BMP280;58438;51.200;7.252;2023-12-29T03:57:41;96664.91;;;8.21
64458;BMP280;58438;51.200;7.252;2023-12-29T04:00:29;96658.97;;;8.22
64458;BMP280;58438;51.200;7.252;2023-12-29T04:03:16;96638.78;;;8.23
64458;BMP280;58438;51.200;7.252;2023-12-29T04:06:05;96638.78;;;8.23
64458;BMP280;58438;51.200;7.252;2023-12-29T04:08:52;96653.84;;;8.24
64458;BMP280;58438;51.200;7.252;2023-12-29T04:11:39;96647.94;;;8.26
64458;BMP280;58438;51.200;7.252;2023-12-29T04:14:26;96644.97;;;8.29
64458;BMP280;58438;51.200;7.252;2023-12-29T04:17:14;96648.22;;;8.28
64458;BMP280;58438;51.200;7.252;2023-12-29T04:20:01;96636.63;;;8.27
64458;BMP280;58438;51.200;7.252;2023-12-29T04:22:49;96653.41;;;8.31
64458;BMP280;58438;51.200;7.252;2023-12-29T04:25:37;96640.84;;;8.34
64458;BMP280;58438;51.200;7.252;2023-12-29T04:28:24;96635.69;;;8.36
64458;BMP280;58438;51.200;7.252;2023-12-29T04:31:10;96657.59;;;8.32
64458;BMP280;58438;51.200;7.252;2023-12-29T04:33:58;96649.19;;;8.30
64458;BMP280;58438;51.200;7.252;2023-12-29T04:36:45;96647.00;;;8.34
64458;BMP280;58438;51.200;7.252;2023-12-29T04:39:34;96653.91;;;8.35
64458;BMP280;58438;51.200;7.252;2023-12-29T04:42:21;96664.28;;;8.37
64458;BMP280;58438;51.200;7.252;2023-12-29T04:45:09;96643.03;;;8.30
64458;BMP280;58438;51.200;7.252;2023-12-29T04:47:56;96640.56;;;8.26
64458;BMP280;58438;51.200;7.252;2023-12-29T04:50:44;96631.41;;;8.24
64458;BMP280;58438;51.200;7.252;2023-12-29T04:53:31;96635.59;;;8.25
64458;BMP280;58438;51.200;7.252;2023-12-29T04:56:19;96634.88;;;8.24
64458;BMP280;58438;51.200;7.252;2023-12-29T04:59:06;96636.56;;;8.22
64458;BMP280;58438;51.200;7.252;2023-12-29T05:01:53;96643.00;;;8.24
64458;BMP280;58438;51.200;7.252;2023-12-29T05:04:40;96647.19;;;8.25
64458;BMP280;58438;51.200;7.252;2023-12-29T05:07:28;96644.50;;;8.25
64458;BMP280;58438;51.200;7.252;2023-12-29T05:10:14;96644.50;;;8.25
64458;BMP280;58438;51.200;7.252;2023-12-29T05:13:03;96655.59;;;8.27
64458;BMP280;58438;51.200;7.252;2023-12-29T05:15:50;96654.09;;;8.26
64458;BMP280;58438;51.200;7.252;2023-12-29T05:18:37;96660.53;;;8.29
64458;BMP280;58438;51.200;7.252;2023-12-29T05:21:24;96658.31;;;8.27
64458;BMP280;58438;51.200;7.252;2023-12-29T05:24:12;96648.91;;;8.28
64458;BMP280;58438;51.200;7.252;2023-12-29T05:26:59;96650.94;;;8.33
64458;BMP280;58438;51.200;7.252;2023-12-29T05:29:48;96669.16;;;8.33
64458;BMP280;58438;51.200;7.252;2023-12-29T05:32:35;96662.72;;;8.30
64458;BMP280;58438;51.200;7.252;2023-12-29T05:35:22;96664.75;;;8.35
64458;BMP280;58438;51.200;7.252;2023-12-29T05:38:09;96664.50;;;8.33
64458;BMP280;58438;51.200;7.252;2023-12-29T05:40:56;96668.69;;;8.34
64458;BMP280;58438;51.200;7.252;2023-12-29T05:43:43;96661.78;;;8.33
64458;BMP280;58438;51.200;7.252;2023-12-29T05:46:32;96668.25;;;8.41
64458;BMP280;58438;51.200;7.252;2023-12-29T05:49:19;96677.63;;;8.40
64458;BMP280;58438;51.200;7.252;2023-12-29T05:52:10;96692.91;;;8.43
64458;BMP280;58438;51.200;7.252;2023-12-29T05:54:57;96685.44;;;8.33
64458;BMP280;58438;51.200;7.252;2023-12-29T05:57:45;96683.28;;;8.37
64458;BMP280;58438;51.200;7.252;2023-12-29T06:00:32;96683.78;;;8.41
64458;BMP280;58438;51.200;7.252;2023-12-29T06:03:20;96695.59;;;8.38
64458;BMP280;58438;51.200;7.252;2023-12-29T06:06:07;96692.63;;;8.36
64458;BMP280;58438;51.200;7.252;2023-12-29T06:08:54;96689.94;;;8.36
64458;BMP280;58438;51.200;7.252;2023-12-29T06:11:41;96698.78;;;8.36
64458;BMP280;58438;51.200;7.252;2023-12-29T06:14:29;96697.78;;;8.34
64458;BMP280;58438;51.200;7.252;2023-12-29T06:17:16;96705.97;;;8.39
64458;BMP280;58438;51.200;7.252;2023-12-29T06:20:05;96712.81;;;8.35
64458;BMP280;58438;51.200;7.252;2023-12-29T06:22:52;96724.88;;;8.34
64458;BMP280;58438;51.200;7.252;2023-12-29T06:25:39;96715.47;;;8.29
64458;BMP280;58438;51.200;7.252;2023-12-29T06:28:27;96710.59;;;8.33
64458;BMP280;58438;51.200;7.252;2023-12-29T06:31:16;96713.06;;;8.31
64458;BMP280;58438;51.200;7.252;2023-12-29T06:34:04;96722.47;;;8.36
64458;BMP280;58438;51.200;7.252;2023-12-29T06:36:53;96720.47;;;8.36
64458;BMP280;58438;51.200;7.252;2023-12-29T06:39:40;96727.38;;;8.37
64458;BMP280;58438;51.200;7.252;2023-12-29T06:42:27;96720.22;;;8.34
64458;BMP280;58438;51.200;7.252;2023-12-29T06:45:14;96696.78;;;8.31
64458;BMP280;58438;51.200;7.252;2023-12-29T06:48:02;96720.00;;;8.38
64458;BMP280;58438;51.200;7.252;2023-12-29T06:50:49;96724.88;;;8.34
64458;BMP280;58438;51.200;7.252;2023-12-29T06:53:38;96725.19;;;8.36
64458;BMP280;58438;51.200;7.252;2023-12-29T06:56:25;96722.97;;;8.40
64458;BMP280;58438;51.200;7.252;2023-12-29T06:59:12;96722.72;;;8.38
64458;BMP280;58438;51.200;7.252;2023-12-29T07:01:59;96717.31;;;8.38
64458;BMP280;58438;51.200;7.252;2023-12-29T07:04:46;96725.19;;;8.36
64458;BMP280;58438;51.200;7.252;2023-12-29T07:07:34;96704.41;;;8.33
64458;BMP280;58438;51.200;7.252;2023-12-29T07:10:23;96702.94;;;8.32
64458;BMP280;58438;51.200;7.252;2023-12-29T07:13:10;96703.47;;;8.36
64458;BMP280;58438;51.200;7.252;2023-12-29T07:15:57;96706.19;;;8.36
64458;BMP280;58438;51.200;7.252;2023-12-29T07:18:45;96709.63;;;8.36
64458;BMP280;58438;51.200;7.252;2023-12-29T07:21:32;96705.69;;;8.37
64458;BMP280;58438;51.200;7.252;2023-12-29T07:24:20;96704.22;;;8.36
64458;BMP280;58438;51.200;7.252;2023-12-29T07:27:08;96695.56;;;8.32
64458;BMP280;58438;51.200;7.252;2023-12-29T07:29:56;96696.50;;;8.29
64458;BMP280;58438;51.200;7.252;2023-12-29T07:32:43;96709.41;;;8.40
64458;BMP280;58438;51.200;7.252;2023-12-29T07:35:30;96700.47;;;8.34
64458;BMP280;58438;51.200;7.252;2023-12-29T07:38:18;96694.13;;;8.37
64458;BMP280;58438;51.200;7.252;2023-12-29T07:41:05;96687.94;;;8.36
64458;BMP280;58438;51.200;7.252;2023-12-29T07:43:54;96695.34;;;8.36
64458;BMP280;58438;51.200;7.252;2023-12-29T07:46:41;96697.81;;;8.39
64458;BMP280;58438;51.200;7.252;2023-12-29T07:49:28;96702.50;;;8.39
64458;BMP280;58438;51.200;7.252;2023-12-29T07:52:15;96699.03;;;8.38
64458;BMP280;58438;51.200;7.252;2023-12-29T07:55:03;96698.06;;;8.36
64458;BMP280;58438;51.200;7.252;2023-12-29T07:57:50;96683.03;;;8.40
64458;BMP280;58438;51.200;7.252;2023-12-29T08:00:39;96672.19;;;8.40
64458;BMP280;58438;51.200;7.252;2023-12-29T08:03:26;96661.53;;;8.31
64458;BMP280;58438;51.200;7.252;2023-12-29T08:06:14;96656.59;;;8.30
64458;BMP280;58438;51.200;7.252;2023-12-29T08:09:01;96654.09;;;8.26
64458;BMP280;58438;51.200;7.252;2023-12-29T08:11:49;96638.78;;;8.23
64458;BMP280;58438;51.200;7.252;2023-12-29T08:14:36;96636.31;;;8.20
64458;BMP280;58438;51.200;7.252;2023-12-29T08:17:25;96637.50;;;8.19
64458;BMP280;58438;51.200;7.252;2023-12-29T08:20:12;96664.41;;;8.22
64458;BMP280;58438;51.200;7.252;2023-12-29T08:22:59;96641.97;;;8.16
64458;BMP280;58438;51.200;7.252;2023-12-29T08:25:48;96630.38;;;8.16
64458;BMP280;58438;51.200;7.252;2023-12-29T08:28:35;96646.63;;;8.16
64458;BMP280;58438;51.200;7.252;2023-12-29T08:31:23;96636.66;;;8.02
64458;BMP280;58438;51.200;7.252;2023-12-29T08:34:13;96636.44;;;8.05
64458;BMP280;58438;51.200;7.252;2023-12-29T08:37:01;96623.53;;;7.95
64458;BMP280;58438;51.200;7.252;2023-12-29T08:39:48;96619.66;;;8.01
64458;BMP280;58438;51.200;7.252;2023-12-29T08:42:35;96618.88;;;7.95
64458;BMP280;58438;51.200;7.252;2023-12-29T08:45:22;96610.50;;;7.93
64458;BMP280;58438;51.200;7.252;2023-12-29T08:48:09;96620.31;;;7.91
64458;BMP280;58438;51.200;7.252;2023-12-29T08:50:58;96618.88;;;7.95
64458;BMP280;58438;51.200;7.252;2023-12-29T08:53:47;96617.88;;;7.93
64458;BMP280;58438;51.200;7.252;2023-12-29T08:56:34;96617.88;;;7.98
64458;BMP280;58438;51.200;7.252;2023-12-29T08:59:21;96602.84;;;7.97
64458;BMP280;58438;51.200;7.252;2023-12-29T09:02:09;96602.63;;;7.95
64458;BMP280;58438;51.200;7.252;2023-12-29T09:04:56;96605.09;;;7.99
64458;BMP280;58438;51.200;7.252;2023-12-29T09:07:44;96600.94;;;8.03
64458;BMP280;58438;51.200;7.252;2023-12-29T09:10:31;96595.53;;;8.03
64458;BMP280;58438;51.200;7.252;2023-12-29T09:13:18;96593.75;;;7.95
64458;BMP280;58438;51.200;7.252;2023-12-29T09:16:08;96589.31;;;7.97
64458;BMP280;58438;51.200;7.252;2023-12-29T09:18:55;96606.00;;;7.90
64458;BMP280;58438;51.200;7.252;2023-12-29T09:21:42;96606.81;;;7.96
64458;BMP280;58438;51.200;7.252;2023-12-29T09:24:30;96612.91;;;7.91
64458;BMP280;58438;51.200;7.252;2023-12-29T09:27:17;96601.56;;;7.87
64458;BMP280;58438;51.200;7.252;2023-12-29T09:30:05;96597.88;;;7.90
64458;BMP280;58438;51.200;7.252;2023-12-29T09:32:53;96613.84;;;7.83
64458;BMP280;58438;51.200;7.252;2023-12-29T09:35:40;96600.59;;;7.90
64458;BMP280;58438;51.200;7.252;2023-12-29T09:38:27;96596.41;;;7.89
64458;BMP280;58438;51.200;7.252;2023-12-29T09:41:15;96584.59;;;7.92
64458;BMP280;58438;51.200;7.252;2023-12-29T09:44:03;96598.84;;;7.87
64458;BMP280;58438;51.200;7.252;2023-12-29T09:46:52;96588.53;;;7.91
64458;BMP280;58438;51.200;7.252;2023-12-29T09:49:40;96576.19;;;7.90
64458;BMP280;58438;51.200;7.252;2023-12-29T09:52:27;96578.00;;;7.99
64458;BMP280;58438;51.200;7.252;2023-12-29T09:55:14;96572.59;;;7.99
64458;BMP280;58438;51.200;7.252;2023-12-29T09:58:03;96572.59;;;7.99
64458;BMP280;58438;51.200;7.252;2023-12-29T10:00:51;96570.09;;;7.95
64458;BMP280;58438;51.200;7.252;2023-12-29T10:03:39;96560.75;;;7.96
64458;BMP280;58438;51.200;7.252;2023-12-29T10:06:27;96562.00;;;8.01
64458;BMP280;58438;51.200;7.252;2023-12-29T10:09:17;96556.84;;;8.03
64458;BMP280;58438;51.200;7.252;2023-12-29T10:12:08;96557.81;;;8.00
64458;BMP280;58438;51.200;7.252;2023-12-29T10:15:04;96545.94;;;7.97
64458;BMP280;58438;51.200;7.252;2023-12-29T10:17:56;96548.66;;;7.97
64458;BMP280;58438;51.200;7.252;2023-12-29T10:20:47;96552.16;;;8.03
64458;BMP280;58438;51.200;7.252;2023-12-29T10:23:38;96557.38;;;8.07
64458;BMP280;58438;51.200;7.252;2023-12-29T10:26:25;96548.19;;;7.99
64458;BMP280;58438;51.200;7.252;2023-12-29T10:29:13;96560.03;;;8.01
64458;BMP280;58438;51.200;7.252;2023-12-29T10:32:03;96561.53;;;8.02
64458;BMP280;58438;51.200;7.252;2023-12-29T10:34:51;96540.56;;;8.03
64458;BMP280;58438;51.200;7.252;2023-12-29T10:37:54;96549.25;;;8.07
64458;BMP280;58438;51.200;7.252;2023-12-29T10:40:54;96552.16;;;8.03
64458;BMP280;58438;51.200;7.252;2023-12-29T10:43:42;96545.06;;;8.11
64458;BMP280;58438;51.200;7.252;2023-12-29T10:46:30;96540.38;;;8.06
64458;BMP280;58438;51.200;7.252;2023-12-29T10:49:19;96554.66;;;8.07
64458;BMP280;58438;51.200;7.252;2023-12-29T10:52:10;96553.19;;;8.11
64458;BMP280;58438;51.200;7.252;2023-12-29T10:55:03;96542.56;;;8.08
64458;BMP280;58438;51.200;7.252;2023-12-29T10:57:51;96548.78;;;8.14
64458;BMP280;58438;51.200;7.252;2023-12-29T11:00:49;96533.00;;;8.12
64458;BMP280;58438;51.200;7.252;2023-12-29T11:03:36;96531.31;;;8.20
64458;BMP280;58438;51.200;7.252;2023-12-29T11:06:25;96535.75;;;8.18
64458;BMP280;58438;51.200;7.252;2023-12-29T11:09:12;96512.34;;;8.20
64458;BMP280;58438;51.200;7.252;2023-12-29T11:12:00;96512.59;;;8.22
64458;BMP280;58438;51.200;7.252;2023-12-29T11:14:48;96537.75;;;8.23
64458;BMP280;58438;51.200;7.252;2023-12-29T11:17:35;96539.22;;;8.24
64458;BMP280;58438;51.200;7.252;2023-12-29T11:20:23;96527.91;;;8.25
64458;BMP280;58438;51.200;7.252;2023-12-29T11:23:13;96514.13;;;8.29
64458;BMP280;58438;51.200;7.252;2023-12-29T11:26:00;96531.13;;;8.29
64458;BMP280;58438;51.200;7.252;2023-12-29T11:28:50;96528.94;;;8.33
64458;BMP280;58438;51.200;7.252;2023-12-29T11:31:38;96538.09;;;8.41
64458;BMP280;58438;51.200;7.252;2023-12-29T11:34:26;96541.06;;;8.38
64458;BMP280;58438;51.200;7.252;2023-12-29T11:37:18;96545.75;;;8.43
64458;BMP280;58438;51.200;7.252;2023-12-29T11:40:11;96540.09;;;8.46
64458;BMP280;58438;51.200;7.252;2023-12-29T11:43:02;96544.53;;;8.49
64458;BMP280;58438;51.200;7.252;2023-12-29T11:45:52;96530.00;;;8.52
64458;BMP280;58438;51.200;7.252;2023-12-29T11:48:54;96532.72;;;8.52
64458;BMP280;58438;51.200;7.252;2023-12-29T11:51:44;96527.56;;;8.54
64458;BMP280;58438;51.200;7.252;2023-12-29T11:54:31;96527.03;;;8.50
64458;BMP280;58438;51.200;7.252;2023-12-29T11:57:32;96514.00;;;8.54
64458;BMP280;58438;51.200;7.252;2023-12-29T12:00:20;96523.09;;;8.51
64458;BMP280;58438;51.200;7.252;2023-12-29T12:03:13;96505.13;;;8.53
64458;BMP280;58438;51.200;7.252;2023-12-29T12:06:00;96494.53;;;8.55
64458;BMP280;58438;51.200;7.252;2023-12-29T12:08:49;96496.00;;;8.56
64458;BMP280;58438;51.200;7.252;2023-12-29T12:11:56;96499.22;;;8.55
64458;BMP280;58438;51.200;7.252;2023-12-29T12:14:49;96503.16;;;8.59
64458;BMP280;58438;51.200;7.252;2023-12-29T12:17:37;96503.88;;;8.60
64458;BMP280;58438;51.200;7.252;2023-12-29T12:20:24;96499.94;;;8.55
64458;BMP280;58438;51.200;7.252;2023-12-29T12:23:15;96517.97;;;8.64
64458;BMP280;58438;51.200;7.252;2023-12-29T12:26:04;96518.94;;;8.61
64458;BMP280;58438;51.200;7.252;2023-12-29T12:28:53;96511.56;;;8.56
64458;BMP280;58438;51.200;7.252;2023-12-29T12:31:52;96512.25;;;8.46
64458;BMP280;58438;51.200;7.252;2023-12-29T12:34:40;96513.63;;;8.30
64458;BMP280;58438;51.200;7.252;2023-12-29T12:37:27;96521.50;;;8.28
64458;BMP280;58438;51.200;7.252;2023-12-29T12:40:24;96500.31;;;8.27
64458;BMP280;58438;51.200;7.252;2023-12-29T12:43:13;96506.25;;;8.31
64458;BMP280;58438;51.200;7.252;2023-12-29T12:46:00;96491.47;;;8.32
64458;BMP280;58438;51.200;7.252;2023-12-29T12:48:50;96495.66;;;8.38
64458;BMP280;58438;51.200;7.252;2023-12-29T12:51:38;96484.13;;;8.43
64458;BMP280;58438;51.200;7.252;2023-12-29T12:54:25;96477.00;;;8.51
64458;BMP280;58438;51.200;7.252;2023-12-29T12:57:12;96470.63;;;8.54
64458;BMP280;58438;51.200;7.252;2023-12-29T12:59:59;96469.31;;;8.49
64458;BMP280;58438;51.200;7.252;2023-12-29T13:02:47;96472.81;;;8.55
64458;BMP280;58438;51.200;7.252;2023-12-29T13:05:36;96471.56;;;8.51
64458;BMP280;58438;51.200;7.252;2023-12-29T13:08:24;96473.56;;;8.56
64458;BMP280;58438;51.200;7.252;2023-12-29T13:11:19;96473.56;;;8.56
64458;BMP280;58438;51.200;7.252;2023-12-29T13:14:08;96481.47;;;8.54
64458;BMP280;58438;51.200;7.252;2023-12-29T13:16:55;96464.44;;;8.53
64458;BMP280;58438;51.200;7.252;2023-12-29T13:19:42;96465.91;;;8.54
64458;BMP280;58438;51.200;7.252;2023-12-29T13:22:31;96460.25;;;8.58
64458;BMP280;58438;51.200;7.252;2023-12-29T13:25:18;96461.47;;;8.51
64458;BMP280;58438;51.200;7.252;2023-12-29T13:28:06;96462.19;;;8.52
64458;BMP280;58438;51.200;7.252;2023-12-29T13:30:53;96455.31;;;8.56
64458;BMP280;58438;51.200;7.252;2023-12-29T13:33:45;96468.63;;;8.60
64458;BMP280;58438;51.200;7.252;2023-12-29T13:36:34;96460.25;;;8.58
64458;BMP280;58438;51.200;7.252;2023-12-29T13:39:26;96450.66;;;8.57
64458;BMP280;58438;51.200;7.252;2023-12-29T13:42:18;96452.84;;;8.58
64458;BMP280;58438;51.200;7.252;2023-12-29T13:45:06;96467.16;;;8.59
64458;BMP280;58438;51.200;7.252;2023-12-29T13:47:55;96462.47;;;8.59
64458;BMP280;58438;51.200;7.252;2023-12-29T13:50:44;96466.19;;;8.62
64458;BMP280;58438;51.200;7.252;2023-12-29T13:53:32;96466.91;;;8.62
64458;BMP280;58438;51.200;7.252;2023-12-29T13:56:21;96463.97;;;8.60
64458;BMP280;58438;51.200;7.252;2023-12-29T13:59:08;96457.56;;;8.63
64458;BMP280;58438;51.200;7.252;2023-12-29T14:01:55;96463.97;;;8.66
64458;BMP280;58438;51.200;7.252;2023-12-29T14:04:45;96461.25;;;8.71
64458;BMP280;58438;51.200;7.252;2023-12-29T14:07:32;96461.78;;;8.70
64458;BMP280;58438;51.200;7.252;2023-12-29T14:10:19;96474.81;;;8.71
64458;BMP280;58438;51.200;7.252;2023-12-29T14:13:08;96478.78;;;8.70
64458;BMP280;58438;51.200;7.252;2023-12-29T14:15:57;96479.06;;;8.78
64458;BMP280;58438;51.200;7.252;2023-12-29T14:18:52;96471.13;;;8.69
64458;BMP280;58438;51.200;7.252;2023-12-29T14:21:39;96478.03;;;8.70
64458;BMP280;58438;51.200;7.252;2023-12-29T14:24:27;96494.31;;;8.70
64458;BMP280;58438;51.200;7.252;2023-12-29T14:27:14;96478.53;;;8.68
64458;BMP280;58438;51.200;7.252;2023-12-29T14:30:04;96478.78;;;8.70
64458;BMP280;58438;51.200;7.252;2023-12-29T14:33:04;96493.81;;;8.66
64458;BMP280;58438;51.200;7.252;2023-12-29T14:35:51;96486.66;;;8.68
64458;BMP280;58438;51.200;7.252;2023-12-29T14:38:38;96511.31;;;8.65
64458;BMP280;58438;51.200;7.252;2023-12-29T14:41:25;96498.25;;;8.63
64458;BMP280;58438;51.200;7.252;2023-12-29T14:44:12;96493.09;;;8.65
64458;BMP280;58438;51.200;7.252;2023-12-29T14:47:01;96478.78;;;8.65
64458;BMP280;58438;51.200;7.252;2023-12-29T14:49:48;96484.44;;;8.67
64458;BMP280;58438;51.200;7.252;2023-12-29T14:52:35;96479.25;;;8.63
64458;BMP280;58438;51.200;7.252;2023-12-29T14:55:22;96482.94;;;8.60
64458;BMP280;58438;51.200;7.252;2023-12-29T14:58:10;96460.00;;;8.56
64458;BMP280;58438;51.200;7.252;2023-12-29T15:00:57;96460.75;;;8.56
64458;BMP280;58438;51.200;7.252;2023-12-29T15:03:46;96463.69;;;8.48
64458;BMP280;58438;51.200;7.252;2023-12-29T15:06:33;96461.44;;;8.46
64458;BMP280;58438;51.200;7.252;2023-12-29T15:09:20;96451.56;;;8.48
64458;BMP280;58438;51.200;7.252;2023-12-29T15:12:07;96461.19;;;8.49
64458;BMP280;58438;51.200;7.252;2023-12-29T15:14:54;96454.28;;;8.48
64458;BMP280;58438;51.200;7.252;2023-12-29T15:17:41;96451.09;;;8.45
64458;BMP280;58438;51.200;7.252;2023-12-29T15:20:30;96452.59;;;8.46
64458;BMP280;58438;51.200;7.252;2023-12-29T15:23:16;96445.69;;;8.45
64458;BMP280;58438;51.200;7.252;2023-12-29T15:26:03;96449.56;;;8.38
64458;BMP280;58438;51.200;7.252;2023-12-29T15:28:51;96457.47;;;8.42
64458;BMP280;58438;51.200;7.252;2023-12-29T15:31:41;96439.72;;;8.41
64458;BMP280;58438;51.200;7.252;2023-12-29T15:34:28;96423.22;;;8.44
64458;BMP280;58438;51.200;7.252;2023-12-29T15:37:17;96437.03;;;8.46
64458;BMP280;58438;51.200;7.252;2023-12-29T15:40:05;96446.16;;;8.48
64458;BMP280;58438;51.200;7.252;2023-12-29T15:42:52;96451.09;;;8.50
64458;BMP280;58438;51.200;7.252;2023-12-29T15:45:41;96460.72;;;8.51
64458;BMP280;58438;51.200;7.252;2023-12-29T15:48:28;96434.56;;;8.48
64458;BMP280;58438;51.200;7.252;2023-12-29T15:51:16;96429.88;;;8.48
64458;BMP280;58438;51.200;7.252;2023-12-29T15:54:04;96437.56;;;8.55
64458;BMP280;58438;51.200;7.252;2023-12-29T15:56:51;96429.19;;;8.53
64458;BMP280;58438;51.200;7.252;2023-12-29T15:59:38;96426.25;;;8.57
64458;BMP280;58438;51.200;7.252;2023-12-29T16:02:25;96432.38;;;8.52
64458;BMP280;58438;51.200;7.252;2023-12-29T16:05:13;96419.09;;;8.54
64458;BMP280;58438;51.200;7.252;2023-12-29T16:08:00;96419.78;;;8.49
64458;BMP280;58438;51.200;7.252;2023-12-29T16:10:49;96413.66;;;8.54
64458;BMP280;58438;51.200;7.252;2023-12-29T16:13:36;96408.94;;;8.49
64458;BMP280;58438;51.200;7.252;2023-12-29T16:16:23;96411.19;;;8.50
64458;BMP280;58438;51.200;7.252;2023-12-29T16:19:13;96403.03;;;8.45
64458;BMP280;58438;51.200;7.252;2023-12-29T16:22:00;96401.53;;;8.44
64458;BMP280;58438;51.200;7.252;2023-12-29T16:24:47;96406.47;;;8.51